Terminal Aerodrome Forecast
Issued by NWS Nashville, TN

Home | Current Version | Previous Version | Text Only | Print | Product List | Glossary On
Versions: 1 2 3 4 5 6 7 8 9 10 11 12 13 14 15 16 17 18 19 20 21
753
FTUS44 KOHX 031122
TAFBNA
TAF
KBNA 031122Z 0312/0412 34005KT 6SM BR BKN050
     FM031500 32007KT P6SM BKN035
     FM031800 33010KT P6SM BKN050
     FM040000 30004KT P6SM BKN060=

USA.gov is the U.S. government's official web portal to all federal, state and local government web resources and services.